sensor_id;sensor_type;location;lat;lon;timestamp;P1;durP1;ratioP1;P2;durP2;ratioP2
21505;SDS011;10914;48.886;9.394;2022-12-05T00:03:47;72.55;;;55.63;;
21505;SDS011;10914;48.886;9.394;2022-12-05T00:06:13;59.13;;;52.22;;
21505;SDS011;10914;48.886;9.394;2022-12-05T00:08:38;72.30;;;56.30;;
21505;SDS011;10914;48.886;9.394;2022-12-05T00:11:03;77.83;;;57.63;;
21505;SDS011;10914;48.886;9.394;2022-12-05T00:13:28;71.55;;;56.20;;
21505;SDS011;10914;48.886;9.394;2022-12-05T00:15:54;66.35;;;54.30;;
21505;SDS011;10914;48.886;9.394;2022-12-05T00:18:19;61.78;;;52.92;;
21505;SDS011;10914;48.886;9.394;2022-12-05T00:20:44;57.55;;;51.33;;
21505;SDS011;10914;48.886;9.394;2022-12-05T00:23:10;63.47;;;56.60;;
21505;SDS011;10914;48.886;9.394;2022-12-05T00:25:35;58.75;;;52.28;;
21505;SDS011;10914;48.886;9.394;2022-12-05T00:28:00;59.63;;;53.42;;
21505;SDS011;10914;48.886;9.394;2022-12-05T00:30:25;58.28;;;52.28;;
21505;SDS011;10914;48.886;9.394;2022-12-05T00:32:51;58.33;;;52.58;;
21505;SDS011;10914;48.886;9.394;2022-12-05T00:35:16;58.85;;;52.92;;
21505;SDS011;10914;48.886;9.394;2022-12-05T00:37:41;54.22;;;48.58;;
21505;SDS011;10914;48.886;9.394;2022-12-05T00:40:06;56.55;;;50.92;;
21505;SDS011;10914;48.886;9.394;2022-12-05T00:42:32;61.17;;;55.38;;
21505;SDS011;10914;48.886;9.394;2022-12-05T00:44:57;62.60;;;56.70;;
21505;SDS011;10914;48.886;9.394;2022-12-05T00:47:22;62.40;;;56.90;;
21505;SDS011;10914;48.886;9.394;2022-12-05T00:49:47;57.75;;;51.80;;
21505;SDS011;10914;48.886;9.394;2022-12-05T00:52:13;58.20;;;52.60;;
21505;SDS011;10914;48.886;9.394;2022-12-05T00:54:38;58.55;;;53.13;;
21505;SDS011;10914;48.886;9.394;2022-12-05T00:57:03;56.80;;;51.33;;
21505;SDS011;10914;48.886;9.394;2022-12-05T00:59:28;56.70;;;50.97;;
21505;SDS011;10914;48.886;9.394;2022-12-05T01:01:53;57.25;;;51.55;;
21505;SDS011;10914;48.886;9.394;2022-12-05T01:04:20;59.53;;;53.73;;
21505;SDS011;10914;48.886;9.394;2022-12-05T01:06:46;60.03;;;54.00;;
21505;SDS011;10914;48.886;9.394;2022-12-05T01:09:12;59.63;;;53.28;;
21505;SDS011;10914;48.886;9.394;2022-12-05T01:11:37;58.53;;;52.78;;
21505;SDS011;10914;48.886;9.394;2022-12-05T01:14:03;54.47;;;49.13;;
21505;SDS011;10914;48.886;9.394;2022-12-05T01:16:32;55.35;;;49.75;;
21505;SDS011;10914;48.886;9.394;2022-12-05T01:18:58;61.05;;;54.85;;
21505;SDS011;10914;48.886;9.394;2022-12-05T01:21:24;58.83;;;53.38;;
21505;SDS011;10914;48.886;9.394;2022-12-05T01:23:49;58.05;;;52.47;;
21505;SDS011;10914;48.886;9.394;2022-12-05T01:26:15;56.38;;;51.35;;
21505;SDS011;10914;48.886;9.394;2022-12-05T01:28:41;57.28;;;52.10;;
21505;SDS011;10914;48.886;9.394;2022-12-05T01:31:09;57.20;;;51.55;;
21505;SDS011;10914;48.886;9.394;2022-12-05T01:33:36;56.47;;;50.83;;
21505;SDS011;10914;48.886;9.394;2022-12-05T01:36:02;56.40;;;51.17;;
21505;SDS011;10914;48.886;9.394;2022-12-05T01:38:27;60.10;;;54.40;;
21505;SDS011;10914;48.886;9.394;2022-12-05T01:41:00;58.63;;;53.17;;
21505;SDS011;10914;48.886;9.394;2022-12-05T01:43:25;52.75;;;47.60;;
21505;SDS011;10914;48.886;9.394;2022-12-05T01:45:50;55.80;;;50.40;;
21505;SDS011;10914;48.886;9.394;2022-12-05T01:48:20;59.30;;;53.65;;
21505;SDS011;10914;48.886;9.394;2022-12-05T01:50:46;54.50;;;49.38;;
21505;SDS011;10914;48.886;9.394;2022-12-05T01:53:12;57.72;;;52.53;;
21505;SDS011;10914;48.886;9.394;2022-12-05T01:55:37;54.47;;;49.28;;
21505;SDS011;10914;48.886;9.394;2022-12-05T01:58:04;56.15;;;50.78;;
21505;SDS011;10914;48.886;9.394;2022-12-05T02:00:30;49.50;;;44.80;;
21505;SDS011;10914;48.886;9.394;2022-12-05T02:02:58;50.35;;;45.42;;
21505;SDS011;10914;48.886;9.394;2022-12-05T02:05:26;51.80;;;46.97;;
21505;SDS011;10914;48.886;9.394;2022-12-05T02:07:52;53.50;;;48.80;;
21505;SDS011;10914;48.886;9.394;2022-12-05T02:10:17;54.60;;;49.70;;
21505;SDS011;10914;48.886;9.394;2022-12-05T02:12:42;52.95;;;48.05;;
21505;SDS011;10914;48.886;9.394;2022-12-05T02:17:38;53.25;;;47.92;;
21505;SDS011;10914;48.886;9.394;2022-12-05T02:20:16;51.50;;;46.42;;
21505;SDS011;10914;48.886;9.394;2022-12-05T02:25:21;53.97;;;48.78;;
21505;SDS011;10914;48.886;9.394;2022-12-05T02:30:37;50.80;;;46.08;;
21505;SDS011;10914;48.886;9.394;2022-12-05T02:35:45;50.47;;;45.72;;
21505;SDS011;10914;48.886;9.394;2022-12-05T02:38:23;50.80;;;46.08;;
21505;SDS011;10914;48.886;9.394;2022-12-05T02:43:22;51.83;;;46.92;;
21505;SDS011;10914;48.886;9.394;2022-12-05T02:45:50;53.85;;;48.97;;
21505;SDS011;10914;48.886;9.394;2022-12-05T02:48:17;53.47;;;48.63;;
21505;SDS011;10914;48.886;9.394;2022-12-05T02:50:43;55.65;;;50.58;;
21505;SDS011;10914;48.886;9.394;2022-12-05T02:53:12;54.15;;;49.47;;
21505;SDS011;10914;48.886;9.394;2022-12-05T02:55:39;54.20;;;49.20;;
21505;SDS011;10914;48.886;9.394;2022-12-05T02:58:06;55.33;;;50.45;;
21505;SDS011;10914;48.886;9.394;2022-12-05T03:00:34;50.60;;;46.13;;
21505;SDS011;10914;48.886;9.394;2022-12-05T03:02:59;50.67;;;46.28;;
21505;SDS011;10914;48.886;9.394;2022-12-05T03:05:36;53.88;;;48.92;;
21505;SDS011;10914;48.886;9.394;2022-12-05T03:08:03;49.38;;;45.15;;
21505;SDS011;10914;48.886;9.394;2022-12-05T03:10:32;53.75;;;49.28;;
21505;SDS011;10914;48.886;9.394;2022-12-05T03:13:03;53.10;;;48.67;;
21505;SDS011;10914;48.886;9.394;2022-12-05T03:15:31;50.90;;;46.70;;
21505;SDS011;10914;48.886;9.394;2022-12-05T03:17:59;52.70;;;48.38;;
21505;SDS011;10914;48.886;9.394;2022-12-05T03:20:32;48.92;;;45.00;;
21505;SDS011;10914;48.886;9.394;2022-12-05T03:23:10;44.45;;;40.72;;
21505;SDS011;10914;48.886;9.394;2022-12-05T03:28:22;45.50;;;41.42;;
21505;SDS011;10914;48.886;9.394;2022-12-05T03:30:50;49.55;;;45.50;;
21505;SDS011;10914;48.886;9.394;2022-12-05T03:33:17;53.50;;;49.00;;
21505;SDS011;10914;48.886;9.394;2022-12-05T03:35:51;52.80;;;48.40;;
21505;SDS011;10914;48.886;9.394;2022-12-05T03:38:24;50.75;;;46.45;;
21505;SDS011;10914;48.886;9.394;2022-12-05T03:48:56;50.28;;;45.75;;
21505;SDS011;10914;48.886;9.394;2022-12-05T03:51:23;53.88;;;49.10;;
21505;SDS011;10914;48.886;9.394;2022-12-05T03:53:51;48.20;;;43.97;;
21505;SDS011;10914;48.886;9.394;2022-12-05T03:56:19;49.45;;;44.97;;
21505;SDS011;10914;48.886;9.394;2022-12-05T03:59:01;48.80;;;44.35;;
21505;SDS011;10914;48.886;9.394;2022-12-05T04:01:26;48.22;;;43.92;;
21505;SDS011;10914;48.886;9.394;2022-12-05T04:03:57;46.50;;;42.80;;
21505;SDS011;10914;48.886;9.394;2022-12-05T04:08:50;49.28;;;44.65;;
21505;SDS011;10914;48.886;9.394;2022-12-05T04:11:18;46.42;;;42.08;;
21505;SDS011;10914;48.886;9.394;2022-12-05T04:13:46;48.95;;;44.63;;
21505;SDS011;10914;48.886;9.394;2022-12-05T04:16:14;50.63;;;46.28;;
21505;SDS011;10914;48.886;9.394;2022-12-05T04:19:02;53.90;;;49.03;;
21505;SDS011;10914;48.886;9.394;2022-12-05T04:21:31;52.40;;;47.80;;
21505;SDS011;10914;48.886;9.394;2022-12-05T04:24:47;54.67;;;49.53;;
21505;SDS011;10914;48.886;9.394;2022-12-05T04:29:41;52.10;;;47.40;;
21505;SDS011;10914;48.886;9.394;2022-12-05T04:32:08;53.55;;;48.88;;
21505;SDS011;10914;48.886;9.394;2022-12-05T04:34:35;51.00;;;46.50;;
21505;SDS011;10914;48.886;9.394;2022-12-05T04:37:03;47.28;;;42.95;;
21505;SDS011;10914;48.886;9.394;2022-12-05T04:41:55;44.20;;;40.42;;
21505;SDS011;10914;48.886;9.394;2022-12-05T04:44:23;46.17;;;42.25;;
21505;SDS011;10914;48.886;9.394;2022-12-05T04:46:49;47.05;;;42.85;;
21505;SDS011;10914;48.886;9.394;2022-12-05T04:49:18;46.38;;;42.13;;
21505;SDS011;10914;48.886;9.394;2022-12-05T04:51:44;45.35;;;41.17;;
21505;SDS011;10914;48.886;9.394;2022-12-05T04:54:15;46.65;;;42.38;;
21505;SDS011;10914;48.886;9.394;2022-12-05T04:56:43;44.72;;;40.67;;
21505;SDS011;10914;48.886;9.394;2022-12-05T04:59:09;47.67;;;43.10;;
21505;SDS011;10914;48.886;9.394;2022-12-05T05:04:08;44.38;;;40.33;;
21505;SDS011;10914;48.886;9.394;2022-12-05T05:06:38;42.53;;;38.65;;
21505;SDS011;10914;48.886;9.394;2022-12-05T05:09:04;42.60;;;38.88;;
21505;SDS011;10914;48.886;9.394;2022-12-05T05:11:30;42.65;;;38.90;;
21505;SDS011;10914;48.886;9.394;2022-12-05T05:13:56;45.10;;;40.85;;
21505;SDS011;10914;48.886;9.394;2022-12-05T05:16:22;44.80;;;40.60;;
21505;SDS011;10914;48.886;9.394;2022-12-05T05:18:48;44.80;;;40.78;;
21505;SDS011;10914;48.886;9.394;2022-12-05T05:21:21;42.47;;;38.70;;
21505;SDS011;10914;48.886;9.394;2022-12-05T05:23:47;42.60;;;38.90;;
21505;SDS011;10914;48.886;9.394;2022-12-05T05:26:12;42.72;;;39.17;;
21505;SDS011;10914;48.886;9.394;2022-12-05T05:28:38;46.78;;;42.20;;
21505;SDS011;10914;48.886;9.394;2022-12-05T05:31:03;44.95;;;40.88;;
21505;SDS011;10914;48.886;9.394;2022-12-05T05:33:29;43.55;;;39.55;;
21505;SDS011;10914;48.886;9.394;2022-12-05T05:35:54;44.78;;;40.90;;
21505;SDS011;10914;48.886;9.394;2022-12-05T05:38:20;45.47;;;41.35;;
21505;SDS011;10914;48.886;9.394;2022-12-05T05:40:45;46.63;;;42.47;;
21505;SDS011;10914;48.886;9.394;2022-12-05T05:43:10;45.63;;;41.33;;
21505;SDS011;10914;48.886;9.394;2022-12-05T05:45:35;49.65;;;44.80;;
21505;SDS011;10914;48.886;9.394;2022-12-05T05:48:01;48.85;;;44.45;;
21505;SDS011;10914;48.886;9.394;2022-12-05T05:50:26;51.47;;;46.90;;
21505;SDS011;10914;48.886;9.394;2022-12-05T05:52:51;48.53;;;44.25;;
21505;SDS011;10914;48.886;9.394;2022-12-05T05:55:17;48.60;;;44.10;;
21505;SDS011;10914;48.886;9.394;2022-12-05T05:57:42;47.92;;;43.80;;
21505;SDS011;10914;48.886;9.394;2022-12-05T06:00:07;49.45;;;44.88;;
21505;SDS011;10914;48.886;9.394;2022-12-05T06:02:33;52.42;;;47.50;;
21505;SDS011;10914;48.886;9.394;2022-12-05T06:04:59;48.15;;;43.72;;
21505;SDS011;10914;48.886;9.394;2022-12-05T06:07:24;46.00;;;41.90;;
21505;SDS011;10914;48.886;9.394;2022-12-05T06:09:49;47.55;;;43.13;;
21505;SDS011;10914;48.886;9.394;2022-12-05T06:12:15;45.30;;;41.10;;
21505;SDS011;10914;48.886;9.394;2022-12-05T06:14:40;45.95;;;41.58;;
21505;SDS011;10914;48.886;9.394;2022-12-05T06:17:05;45.90;;;41.63;;
21505;SDS011;10914;48.886;9.394;2022-12-05T06:19:31;44.20;;;39.85;;
21505;SDS011;10914;48.886;9.394;2022-12-05T06:21:56;45.03;;;40.67;;
21505;SDS011;10914;48.886;9.394;2022-12-05T06:24:21;44.55;;;40.45;;
21505;SDS011;10914;48.886;9.394;2022-12-05T06:26:46;44.72;;;40.70;;
21505;SDS011;10914;48.886;9.394;2022-12-05T06:29:11;44.87;;;40.50;;
21505;SDS011;10914;48.886;9.394;2022-12-05T06:31:37;45.70;;;41.10;;
21505;SDS011;10914;48.886;9.394;2022-12-05T06:34:03;47.58;;;43.25;;
21505;SDS011;10914;48.886;9.394;2022-12-05T06:36:28;48.95;;;44.28;;
21505;SDS011;10914;48.886;9.394;2022-12-05T06:38:57;48.38;;;44.00;;
21505;SDS011;10914;48.886;9.394;2022-12-05T06:41:22;46.08;;;42.00;;
21505;SDS011;10914;48.886;9.394;2022-12-05T06:43:50;44.08;;;39.83;;
21505;SDS011;10914;48.886;9.394;2022-12-05T06:46:16;45.92;;;41.78;;
21505;SDS011;10914;48.886;9.394;2022-12-05T06:48:41;44.92;;;40.65;;
21505;SDS011;10914;48.886;9.394;2022-12-05T06:51:08;45.53;;;41.05;;
21505;SDS011;10914;48.886;9.394;2022-12-05T06:53:33;47.90;;;43.35;;
21505;SDS011;10914;48.886;9.394;2022-12-05T06:56:00;50.80;;;45.87;;
21505;SDS011;10914;48.886;9.394;2022-12-05T06:58:26;49.08;;;44.35;;
21505;SDS011;10914;48.886;9.394;2022-12-05T07:00:52;48.08;;;43.60;;
21505;SDS011;10914;48.886;9.394;2022-12-05T07:03:36;49.83;;;45.17;;
21505;SDS011;10914;48.886;9.394;2022-12-05T07:06:02;46.85;;;42.30;;
21505;SDS011;10914;48.886;9.394;2022-12-05T07:08:27;42.78;;;38.80;;
21505;SDS011;10914;48.886;9.394;2022-12-05T07:10:53;44.33;;;40.10;;
21505;SDS011;10914;48.886;9.394;2022-12-05T07:13:18;45.35;;;40.67;;
21505;SDS011;10914;48.886;9.394;2022-12-05T07:15:46;45.50;;;41.10;;
21505;SDS011;10914;48.886;9.394;2022-12-05T07:18:12;44.72;;;40.25;;
21505;SDS011;10914;48.886;9.394;2022-12-05T07:20:37;43.88;;;39.70;;
21505;SDS011;10914;48.886;9.394;2022-12-05T07:23:02;48.15;;;43.42;;
21505;SDS011;10914;48.886;9.394;2022-12-05T07:25:28;44.25;;;39.83;;
21505;SDS011;10914;48.886;9.394;2022-12-05T07:27:53;41.55;;;37.67;;
21505;SDS011;10914;48.886;9.394;2022-12-05T07:30:18;45.00;;;40.65;;
21505;SDS011;10914;48.886;9.394;2022-12-05T07:32:43;46.38;;;42.00;;
21505;SDS011;10914;48.886;9.394;2022-12-05T07:35:09;44.65;;;40.38;;
21505;SDS011;10914;48.886;9.394;2022-12-05T07:37:34;43.47;;;39.35;;
21505;SDS011;10914;48.886;9.394;2022-12-05T07:39:59;44.42;;;39.97;;
21505;SDS011;10914;48.886;9.394;2022-12-05T07:42:24;43.20;;;39.03;;
21505;SDS011;10914;48.886;9.394;2022-12-05T07:44:50;44.17;;;39.78;;
21505;SDS011;10914;48.886;9.394;2022-12-05T07:47:16;43.88;;;39.60;;
21505;SDS011;10914;48.886;9.394;2022-12-05T07:49:47;41.47;;;37.60;;
21505;SDS011;10914;48.886;9.394;2022-12-05T07:52:13;42.80;;;38.90;;
21505;SDS011;10914;48.886;9.394;2022-12-05T07:54:39;44.38;;;40.22;;
21505;SDS011;10914;48.886;9.394;2022-12-05T07:57:04;41.70;;;37.92;;
21505;SDS011;10914;48.886;9.394;2022-12-05T07:59:29;42.50;;;38.63;;
21505;SDS011;10914;48.886;9.394;2022-12-05T08:01:55;43.50;;;38.88;;
21505;SDS011;10914;48.886;9.394;2022-12-05T08:04:20;43.95;;;39.92;;
21505;SDS011;10914;48.886;9.394;2022-12-05T08:06:45;42.20;;;38.33;;
21505;SDS011;10914;48.886;9.394;2022-12-05T08:09:10;42.17;;;38.17;;
21505;SDS011;10914;48.886;9.394;2022-12-05T08:11:36;42.65;;;38.75;;
21505;SDS011;10914;48.886;9.394;2022-12-05T08:14:02;43.38;;;39.38;;
21505;SDS011;10914;48.886;9.394;2022-12-05T08:16:28;40.22;;;36.67;;
21505;SDS011;10914;48.886;9.394;2022-12-05T08:18:54;39.63;;;36.00;;
21505;SDS011;10914;48.886;9.394;2022-12-05T08:21:19;40.15;;;36.63;;
21505;SDS011;10914;48.886;9.394;2022-12-05T08:23:45;40.22;;;36.50;;
21505;SDS011;10914;48.886;9.394;2022-12-05T08:26:12;41.10;;;37.42;;
21505;SDS011;10914;48.886;9.394;2022-12-05T08:28:38;40.80;;;37.25;;
21505;SDS011;10914;48.886;9.394;2022-12-05T08:31:10;41.72;;;38.00;;
21505;SDS011;10914;48.886;9.394;2022-12-05T08:33:36;40.13;;;36.65;;
21505;SDS011;10914;48.886;9.394;2022-12-05T08:36:02;39.97;;;36.60;;
21505;SDS011;10914;48.886;9.394;2022-12-05T08:38:28;41.00;;;37.30;;
21505;SDS011;10914;48.886;9.394;2022-12-05T08:40:53;39.08;;;35.78;;
21505;SDS011;10914;48.886;9.394;2022-12-05T08:43:18;43.20;;;39.25;;
21505;SDS011;10914;48.886;9.394;2022-12-05T08:45:50;42.80;;;38.83;;
21505;SDS011;10914;48.886;9.394;2022-12-05T08:48:15;40.80;;;37.25;;
21505;SDS011;10914;48.886;9.394;2022-12-05T08:50:40;41.78;;;38.17;;
21505;SDS011;10914;48.886;9.394;2022-12-05T08:53:06;40.95;;;37.25;;
21505;SDS011;10914;48.886;9.394;2022-12-05T08:55:32;43.72;;;39.72;;
21505;SDS011;10914;48.886;9.394;2022-12-05T08:57:58;41.85;;;38.03;;
21505;SDS011;10914;48.886;9.394;2022-12-05T09:00:23;42.77;;;38.77;;
21505;SDS011;10914;48.886;9.394;2022-12-05T09:02:51;42.83;;;39.03;;
21505;SDS011;10914;48.886;9.394;2022-12-05T09:05:16;42.17;;;38.22;;
21505;SDS011;10914;48.886;9.394;2022-12-05T09:07:41;43.05;;;39.10;;
21505;SDS011;10914;48.886;9.394;2022-12-05T09:10:07;40.47;;;36.70;;
21505;SDS011;10914;48.886;9.394;2022-12-05T09:12:34;41.38;;;37.78;;
21505;SDS011;10914;48.886;9.394;2022-12-05T09:14:59;41.95;;;38.30;;
21505;SDS011;10914;48.886;9.394;2022-12-05T09:17:24;41.20;;;37.60;;
21505;SDS011;10914;48.886;9.394;2022-12-05T09:19:50;42.15;;;38.45;;
21505;SDS011;10914;48.886;9.394;2022-12-05T09:22:16;40.30;;;36.88;;
21505;SDS011;10914;48.886;9.394;2022-12-05T09:24:41;39.53;;;36.13;;
21505;SDS011;10914;48.886;9.394;2022-12-05T09:27:06;37.87;;;34.87;;
21505;SDS011;10914;48.886;9.394;2022-12-05T09:29:31;38.37;;;35.37;;
21505;SDS011;10914;48.886;9.394;2022-12-05T09:31:56;37.13;;;34.30;;
21505;SDS011;10914;48.886;9.394;2022-12-05T09:34:22;38.60;;;35.35;;
21505;SDS011;10914;48.886;9.394;2022-12-05T09:36:49;38.10;;;34.83;;
21505;SDS011;10914;48.886;9.394;2022-12-05T09:39:16;39.15;;;35.83;;
21505;SDS011;10914;48.886;9.394;2022-12-05T09:47:27;37.10;;;34.20;;
21505;SDS011;10914;48.886;9.394;2022-12-05T09:50:01;37.42;;;34.42;;
21505;SDS011;10914;48.886;9.394;2022-12-05T09:52:28;38.17;;;34.97;;
21505;SDS011;10914;48.886;9.394;2022-12-05T09:54:54;37.97;;;34.67;;
21505;SDS011;10914;48.886;9.394;2022-12-05T09:57:23;36.60;;;33.90;;
21505;SDS011;10914;48.886;9.394;2022-12-05T09:59:49;37.13;;;34.03;;
21505;SDS011;10914;48.886;9.394;2022-12-05T10:12:38;35.78;;;33.08;;
21505;SDS011;10914;48.886;9.394;2022-12-05T10:15:12;35.10;;;32.47;;
21505;SDS011;10914;48.886;9.394;2022-12-05T10:17:43;35.28;;;32.55;;
21505;SDS011;10914;48.886;9.394;2022-12-05T10:20:27;35.95;;;33.15;;
21505;SDS011;10914;48.886;9.394;2022-12-05T10:22:56;34.67;;;32.05;;
21505;SDS011;10914;48.886;9.394;2022-12-05T10:25:22;35.20;;;32.50;;
21505;SDS011;10914;48.886;9.394;2022-12-05T10:28:00;35.10;;;32.50;;
21505;SDS011;10914;48.886;9.394;2022-12-05T10:30:27;34.55;;;31.95;;
21505;SDS011;10914;48.886;9.394;2022-12-05T10:33:00;34.72;;;32.13;;
21505;SDS011;10914;48.886;9.394;2022-12-05T10:35:38;34.08;;;31.60;;
21505;SDS011;10914;48.886;9.394;2022-12-05T10:40:36;37.28;;;34.35;;
21505;SDS011;10914;48.886;9.394;2022-12-05T10:43:03;36.80;;;33.92;;
21505;SDS011;10914;48.886;9.394;2022-12-05T10:45:28;35.38;;;32.75;;
21505;SDS011;10914;48.886;9.394;2022-12-05T10:47:54;38.17;;;35.05;;
21505;SDS011;10914;48.886;9.394;2022-12-05T10:50:31;35.90;;;33.20;;
21505;SDS011;10914;48.886;9.394;2022-12-05T10:52:58;37.35;;;34.22;;
21505;SDS011;10914;48.886;9.394;2022-12-05T10:55:27;38.83;;;35.65;;
21505;SDS011;10914;48.886;9.394;2022-12-05T10:58:07;37.15;;;34.30;;
21505;SDS011;10914;48.886;9.394;2022-12-05T11:00:32;37.08;;;34.10;;
21505;SDS011;10914;48.886;9.394;2022-12-05T11:02:58;37.83;;;34.85;;
21505;SDS011;10914;48.886;9.394;2022-12-05T11:05:29;38.72;;;35.55;;
21505;SDS011;10914;48.886;9.394;2022-12-05T11:07:55;38.22;;;35.03;;
21505;SDS011;10914;48.886;9.394;2022-12-05T11:10:31;37.80;;;34.67;;
21505;SDS011;10914;48.886;9.394;2022-12-05T11:12:57;39.33;;;35.75;;
21505;SDS011;10914;48.886;9.394;2022-12-05T11:15:24;39.85;;;36.40;;
21505;SDS011;10914;48.886;9.394;2022-12-05T11:17:51;38.75;;;35.58;;
21505;SDS011;10914;48.886;9.394;2022-12-05T11:22:42;39.85;;;36.55;;
21505;SDS011;10914;48.886;9.394;2022-12-05T11:25:22;40.08;;;36.47;;
21505;SDS011;10914;48.886;9.394;2022-12-05T11:27:47;39.33;;;36.00;;
21505;SDS011;10914;48.886;9.394;2022-12-05T11:32:38;43.60;;;39.55;;
21505;SDS011;10914;48.886;9.394;2022-12-05T11:37:39;41.20;;;37.55;;
21505;SDS011;10914;48.886;9.394;2022-12-05T11:40:17;40.67;;;37.17;;
21505;SDS011;10914;48.886;9.394;2022-12-05T11:45:32;39.58;;;36.28;;
21505;SDS011;10914;48.886;9.394;2022-12-05T11:51:13;40.42;;;37.00;;
21505;SDS011;10914;48.886;9.394;2022-12-05T11:53:34;39.17;;;35.97;;
21505;SDS011;10914;48.886;9.394;2022-12-05T12:04:14;39.50;;;36.30;;
21505;SDS011;10914;48.886;9.394;2022-12-05T12:07:43;40.67;;;37.08;;
21505;SDS011;10914;48.886;9.394;2022-12-05T12:09:40;40.72;;;37.28;;
21505;SDS011;10914;48.886;9.394;2022-12-05T12:12:18;41.50;;;38.15;;
21505;SDS011;10914;48.886;9.394;2022-12-05T12:14:52;43.67;;;40.08;;
21505;SDS011;10914;48.886;9.394;2022-12-05T12:17:28;41.35;;;37.85;;
21505;SDS011;10914;48.886;9.394;2022-12-05T12:25:18;40.53;;;37.33;;
21505;SDS011;10914;48.886;9.394;2022-12-05T12:30:16;41.50;;;38.20;;
21505;SDS011;10914;48.886;9.394;2022-12-05T12:50:33;42.33;;;38.90;;
21505;SDS011;10914;48.886;9.394;2022-12-05T12:55:41;39.42;;;36.42;;
21505;SDS011;10914;48.886;9.394;2022-12-05T13:00:59;40.70;;;37.53;;
21505;SDS011;10914;48.886;9.394;2022-12-05T13:03:41;41.28;;;38.03;;
21505;SDS011;10914;48.886;9.394;2022-12-05T13:06:28;39.47;;;36.28;;
21505;SDS011;10914;48.886;9.394;2022-12-05T13:08:58;41.22;;;38.13;;
21505;SDS011;10914;48.886;9.394;2022-12-05T13:11:26;40.28;;;37.17;;
21505;SDS011;10914;48.886;9.394;2022-12-05T13:13:54;42.40;;;38.92;;
21505;SDS011;10914;48.886;9.394;2022-12-05T13:16:27;41.88;;;38.60;;
21505;SDS011;10914;48.886;9.394;2022-12-05T13:18:55;41.75;;;38.53;;
21505;SDS011;10914;48.886;9.394;2022-12-05T13:21:20;41.63;;;38.30;;
21505;SDS011;10914;48.886;9.394;2022-12-05T13:23:48;42.38;;;38.83;;
21505;SDS011;10914;48.886;9.394;2022-12-05T13:26:14;43.85;;;40.05;;
21505;SDS011;10914;48.886;9.394;2022-12-05T13:31:15;43.83;;;40.20;;
21505;SDS011;10914;48.886;9.394;2022-12-05T13:33:44;42.65;;;39.25;;
21505;SDS011;10914;48.886;9.394;2022-12-05T13:36:10;42.38;;;38.97;;
21505;SDS011;10914;48.886;9.394;2022-12-05T13:39:00;42.17;;;38.78;;
21505;SDS011;10914;48.886;9.394;2022-12-05T13:41:45;41.67;;;38.45;;
21505;SDS011;10914;48.886;9.394;2022-12-05T13:44:31;40.45;;;37.15;;
21505;SDS011;10914;48.886;9.394;2022-12-05T13:46:57;40.85;;;37.65;;
21505;SDS011;10914;48.886;9.394;2022-12-05T13:51:51;40.53;;;37.25;;
21505;SDS011;10914;48.886;9.394;2022-12-05T13:54:21;42.35;;;38.83;;
21505;SDS011;10914;48.886;9.394;2022-12-05T13:56:51;41.58;;;37.97;;
21505;SDS011;10914;48.886;9.394;2022-12-05T14:02:01;41.60;;;37.83;;
21505;SDS011;10914;48.886;9.394;2022-12-05T14:04:46;40.87;;;37.33;;
21505;SDS011;10914;48.886;9.394;2022-12-05T14:07:35;40.70;;;37.20;;
21505;SDS011;10914;48.886;9.394;2022-12-05T14:09:59;40.70;;;37.20;;
21505;SDS011;10914;48.886;9.394;2022-12-05T14:20:34;42.78;;;39.05;;
21505;SDS011;10914;48.886;9.394;2022-12-05T14:25:31;44.00;;;40.17;;
21505;SDS011;10914;48.886;9.394;2022-12-05T14:33:21;44.80;;;40.80;;
21505;SDS011;10914;48.886;9.394;2022-12-05T14:35:47;45.83;;;41.88;;
21505;SDS011;10914;48.886;9.394;2022-12-05T14:38:31;46.20;;;41.97;;
21505;SDS011;10914;48.886;9.394;2022-12-05T14:41:10;43.47;;;39.67;;
21505;SDS011;10914;48.886;9.394;2022-12-05T14:43:35;42.58;;;38.67;;
21505;SDS011;10914;48.886;9.394;2022-12-05T14:46:14;44.58;;;40.58;;
21505;SDS011;10914;48.886;9.394;2022-12-05T14:48:41;42.25;;;38.67;;
21505;SDS011;10914;48.886;9.394;2022-12-05T14:53:53;43.72;;;39.72;;
21505;SDS011;10914;48.886;9.394;2022-12-05T14:56:19;41.70;;;37.97;;
21505;SDS011;10914;48.886;9.394;2022-12-05T14:58:56;44.53;;;40.63;;
21505;SDS011;10914;48.886;9.394;2022-12-05T15:01:26;44.83;;;40.92;;
21505;SDS011;10914;48.886;9.394;2022-12-05T15:06:54;44.72;;;40.85;;
21505;SDS011;10914;48.886;9.394;2022-12-05T15:12:04;46.00;;;41.80;;
21505;SDS011;10914;48.886;9.394;2022-12-05T15:14:31;45.40;;;41.45;;
21505;SDS011;10914;48.886;9.394;2022-12-05T15:16:59;48.08;;;43.30;;
21505;SDS011;10914;48.886;9.394;2022-12-05T15:19:44;44.70;;;40.38;;
21505;SDS011;10914;48.886;9.394;2022-12-05T15:22:12;45.08;;;41.13;;
21505;SDS011;10914;48.886;9.394;2022-12-05T15:24:38;43.92;;;40.05;;
21505;SDS011;10914;48.886;9.394;2022-12-05T15:27:04;45.08;;;41.00;;
21505;SDS011;10914;48.886;9.394;2022-12-05T15:29:30;45.08;;;40.80;;
21505;SDS011;10914;48.886;9.394;2022-12-05T15:32:01;44.85;;;41.05;;
21505;SDS011;10914;48.886;9.394;2022-12-05T15:39:55;45.55;;;41.30;;
21505;SDS011;10914;48.886;9.394;2022-12-05T15:42:22;47.28;;;42.97;;
21505;SDS011;10914;48.886;9.394;2022-12-05T15:44:48;48.25;;;43.63;;
21505;SDS011;10914;48.886;9.394;2022-12-05T15:47:21;48.50;;;43.58;;
21505;SDS011;10914;48.886;9.394;2022-12-05T15:49:46;47.38;;;43.28;;
21505;SDS011;10914;48.886;9.394;2022-12-05T15:52:26;46.35;;;42.35;;
21505;SDS011;10914;48.886;9.394;2022-12-05T15:54:55;45.65;;;41.90;;
21505;SDS011;10914;48.886;9.394;2022-12-05T15:57:24;47.15;;;42.83;;
21505;SDS011;10914;48.886;9.394;2022-12-05T15:59:53;44.60;;;40.70;;
21505;SDS011;10914;48.886;9.394;2022-12-05T16:02:21;44.88;;;40.88;;
21505;SDS011;10914;48.886;9.394;2022-12-05T16:04:48;47.35;;;42.75;;
21505;SDS011;10914;48.886;9.394;2022-12-05T16:07:14;48.75;;;44.15;;
21505;SDS011;10914;48.886;9.394;2022-12-05T16:09:40;46.67;;;42.35;;
21505;SDS011;10914;48.886;9.394;2022-12-05T16:14:51;45.83;;;41.72;;
21505;SDS011;10914;48.886;9.394;2022-12-05T16:17:18;45.13;;;41.05;;
21505;SDS011;10914;48.886;9.394;2022-12-05T16:19:44;45.72;;;41.58;;
21505;SDS011;10914;48.886;9.394;2022-12-05T16:24:42;47.50;;;42.83;;
21505;SDS011;10914;48.886;9.394;2022-12-05T16:27:16;48.13;;;43.72;;
21505;SDS011;10914;48.886;9.394;2022-12-05T16:29:42;48.17;;;43.85;;
21505;SDS011;10914;48.886;9.394;2022-12-05T16:32:22;45.78;;;41.47;;
21505;SDS011;10914;48.886;9.394;2022-12-05T16:34:47;47.85;;;43.30;;
21505;SDS011;10914;48.886;9.394;2022-12-05T16:37:16;45.28;;;41.17;;
21505;SDS011;10914;48.886;9.394;2022-12-05T16:39:43;50.65;;;45.80;;
21505;SDS011;10914;48.886;9.394;2022-12-05T16:42:25;47.28;;;42.75;;
21505;SDS011;10914;48.886;9.394;2022-12-05T16:44:57;47.30;;;42.90;;
21505;SDS011;10914;48.886;9.394;2022-12-05T16:50:24;47.33;;;43.13;;
21505;SDS011;10914;48.886;9.394;2022-12-05T16:53:03;45.65;;;41.38;;
21505;SDS011;10914;48.886;9.394;2022-12-05T16:55:37;48.65;;;43.95;;
21505;SDS011;10914;48.886;9.394;2022-12-05T16:58:03;53.25;;;47.45;;
21505;SDS011;10914;48.886;9.394;2022-12-05T17:00:29;56.72;;;51.08;;